sensor_id;sensor_type;location;lat;lon;timestamp;pressure;altitude;pressure_sealevel;temperature
71897;BMP280;59767;51.344;12.362;2023-04-25T00:01:32;161072.41;;;9.47
71897;BMP280;59767;51.344;12.362;2023-04-25T00:04:39;161088.13;;;9.53
71897;BMP280;59767;51.344;12.362;2023-04-25T00:07:44;161089.47;;;9.53
71897;BMP280;59767;51.344;12.362;2023-04-25T00:10:49;161094.63;;;9.55
71897;BMP280;59767;51.344;12.362;2023-04-25T00:13:53;161115.59;;;9.63
71897;BMP280;59767;51.344;12.362;2023-04-25T00:16:58;161090.75;;;9.54
71897;BMP280;59767;51.344;12.362;2023-04-25T00:20:02;161067.22;;;9.45
71897;BMP280;59767;51.344;12.362;2023-04-25T00:23:08;161030.59;;;9.31
71897;BMP280;59767;51.344;12.362;2023-04-25T00:26:12;161008.34;;;9.22
71897;BMP280;59767;51.344;12.362;2023-04-25T00:29:17;160994.00;;;9.17
71897;BMP280;59767;51.344;12.362;2023-04-25T00:32:21;160970.44;;;9.08
71897;BMP280;59767;51.344;12.362;2023-04-25T00:35:25;160949.53;;;9.00
71897;BMP280;59767;51.344;12.362;2023-04-25T00:38:29;160932.50;;;8.93
71897;BMP280;59767;51.344;12.362;2023-04-25T00:41:33;160924.69;;;8.90
71897;BMP280;59767;51.344;12.362;2023-04-25T00:44:37;160899.88;;;8.80
71897;BMP280;59767;51.344;12.362;2023-04-25T00:47:42;160884.16;;;8.74
71897;BMP280;59767;51.344;12.362;2023-04-25T00:50:54;160864.56;;;8.67
71897;BMP280;59767;51.344;12.362;2023-04-25T00:53:59;160877.63;;;8.72
71897;BMP280;59767;51.344;12.362;2023-04-25T00:57:03;160856.72;;;8.64
71897;BMP280;59767;51.344;12.362;2023-04-25T01:00:08;160852.78;;;8.62
71897;BMP280;59767;51.344;12.362;2023-04-25T01:03:14;160825.31;;;8.52
71897;BMP280;59767;51.344;12.362;2023-04-25T01:06:21;160811.00;;;8.46
71897;BMP280;59767;51.344;12.362;2023-04-25T01:09:26;160813.59;;;8.47
71897;BMP280;59767;51.344;12.362;2023-04-25T01:12:30;160775.66;;;8.33
71897;BMP280;59767;51.344;12.362;2023-04-25T01:15:34;160769.19;;;8.30
71897;BMP280;59767;51.344;12.362;2023-04-25T01:18:40;160748.22;;;8.22
71897;BMP280;59767;51.344;12.362;2023-04-25T01:21:44;160732.59;;;8.16
71897;BMP280;59767;51.344;12.362;2023-04-25T01:24:49;160741.72;;;8.20
71897;BMP280;59767;51.344;12.362;2023-04-25T01:27:53;160736.50;;;8.18
71897;BMP280;59767;51.344;12.362;2023-04-25T01:30:58;160729.94;;;8.15
71897;BMP280;59767;51.344;12.362;2023-04-25T01:34:03;160719.47;;;8.11
71897;BMP280;59767;51.344;12.362;2023-04-25T01:37:07;160714.28;;;8.09
71897;BMP280;59767;51.344;12.362;2023-04-25T01:40:12;160709.03;;;8.07
71897;BMP280;59767;51.344;12.362;2023-04-25T01:43:16;160679.00;;;7.96
71897;BMP280;59767;51.344;12.362;2023-04-25T01:46:21;160680.28;;;7.96
71897;BMP280;59767;51.344;12.362;2023-04-25T01:49:25;160693.34;;;8.01
71897;BMP280;59767;51.344;12.362;2023-04-25T01:52:29;160684.22;;;7.98
71897;BMP280;59767;51.344;12.362;2023-04-25T01:55:33;160679.00;;;7.96
71897;BMP280;59767;51.344;12.362;2023-04-25T01:58:37;160676.38;;;7.95
71897;BMP280;59767;51.344;12.362;2023-04-25T02:01:41;160659.41;;;7.88
71897;BMP280;59767;51.344;12.362;2023-04-25T02:04:45;160651.53;;;7.85
71897;BMP280;59767;51.344;12.362;2023-04-25T02:07:49;160639.78;;;7.81
71897;BMP280;59767;51.344;12.362;2023-04-25T02:10:53;160656.78;;;7.87
71897;BMP280;59767;51.344;12.362;2023-04-25T02:13:57;160658.13;;;7.88
71897;BMP280;59767;51.344;12.362;2023-04-25T02:17:02;160667.19;;;7.91
71897;BMP280;59767;51.344;12.362;2023-04-25T02:20:06;160669.84;;;7.92
71897;BMP280;59767;51.344;12.362;2023-04-25T02:23:11;160682.94;;;7.97
71897;BMP280;59767;51.344;12.362;2023-04-25T02:26:15;160689.47;;;8.00
71897;BMP280;59767;51.344;12.362;2023-04-25T02:29:19;160675.09;;;7.94
71897;BMP280;59767;51.344;12.362;2023-04-25T02:32:23;160659.41;;;7.88
71897;BMP280;59767;51.344;12.362;2023-04-25T02:35:27;160648.94;;;7.84
71897;BMP280;59767;51.344;12.362;2023-04-25T02:38:31;160630.66;;;7.77
71897;BMP280;59767;51.344;12.362;2023-04-25T02:41:35;160629.38;;;7.77
71897;BMP280;59767;51.344;12.362;2023-04-25T02:44:39;160646.28;;;7.83
71897;BMP280;59767;51.344;12.362;2023-04-25T02:47:43;160629.38;;;7.77
71897;BMP280;59767;51.344;12.362;2023-04-25T02:50:48;160625.47;;;7.75
71897;BMP280;59767;51.344;12.362;2023-04-25T02:53:52;160598.00;;;7.65
71897;BMP280;59767;51.344;12.362;2023-04-25T02:56:56;160588.81;;;7.61
71897;BMP280;59767;51.344;12.362;2023-04-25T03:00:00;160571.84;;;7.55
71897;BMP280;59767;51.344;12.362;2023-04-25T03:03:05;160565.34;;;7.52
71897;BMP280;59767;51.344;12.362;2023-04-25T03:06:09;160554.88;;;7.48
71897;BMP280;59767;51.344;12.362;2023-04-25T03:09:13;160544.44;;;7.44
71897;BMP280;59767;51.344;12.362;2023-04-25T03:12:18;160569.25;;;7.54
71897;BMP280;59767;51.344;12.362;2023-04-25T03:15:22;160578.44;;;7.57
71897;BMP280;59767;51.344;12.362;2023-04-25T03:18:26;160574.50;;;7.56
71897;BMP280;59767;51.344;12.362;2023-04-25T03:21:35;160558.81;;;7.50
71897;BMP280;59767;51.344;12.362;2023-04-25T03:24:39;160557.47;;;7.49
71897;BMP280;59767;51.344;12.362;2023-04-25T03:27:44;160552.25;;;7.47
71897;BMP280;59767;51.344;12.362;2023-04-25T03:30:48;160518.31;;;7.34
71897;BMP280;59767;51.344;12.362;2023-04-25T03:33:52;160513.13;;;7.32
71897;BMP280;59767;51.344;12.362;2023-04-25T03:36:57;160513.13;;;7.32
71897;BMP280;59767;51.344;12.362;2023-04-25T03:40:01;160536.59;;;7.41
71897;BMP280;59767;51.344;12.362;2023-04-25T03:43:05;160520.91;;;7.35
71897;BMP280;59767;51.344;12.362;2023-04-25T03:46:09;160523.50;;;7.36
71897;BMP280;59767;51.344;12.362;2023-04-25T03:49:13;160518.31;;;7.34
71897;BMP280;59767;51.344;12.362;2023-04-25T03:52:22;160500.03;;;7.27
71897;BMP280;59767;51.344;12.362;2023-04-25T03:55:26;160492.19;;;7.24
71897;BMP280;59767;51.344;12.362;2023-04-25T03:58:30;160473.88;;;7.17
71897;BMP280;59767;51.344;12.362;2023-04-25T04:01:34;160492.19;;;7.24
71897;BMP280;59767;51.344;12.362;2023-04-25T04:04:39;160510.47;;;7.31
71897;BMP280;59767;51.344;12.362;2023-04-25T04:07:44;160481.72;;;7.20
71897;BMP280;59767;51.344;12.362;2023-04-25T04:10:47;160456.94;;;7.11
71897;BMP280;59767;51.344;12.362;2023-04-25T04:13:52;160476.50;;;7.18
71897;BMP280;59767;51.344;12.362;2023-04-25T04:16:56;160486.97;;;7.22
71897;BMP280;59767;51.344;12.362;2023-04-25T04:20:00;160490.84;;;7.24
71897;BMP280;59767;51.344;12.362;2023-04-25T04:23:04;160494.78;;;7.25
71897;BMP280;59767;51.344;12.362;2023-04-25T04:26:09;160502.63;;;7.28
71897;BMP280;59767;51.344;12.362;2023-04-25T04:29:13;160515.72;;;7.33
71897;BMP280;59767;51.344;12.362;2023-04-25T04:32:24;160507.88;;;7.30
71897;BMP280;59767;51.344;12.362;2023-04-25T04:35:29;160514.38;;;7.33
71897;BMP280;59767;51.344;12.362;2023-04-25T04:38:33;160517.03;;;7.34
71897;BMP280;59767;51.344;12.362;2023-04-25T04:41:38;160517.03;;;7.34
71897;BMP280;59767;51.344;12.362;2023-04-25T04:44:42;160513.13;;;7.32
71897;BMP280;59767;51.344;12.362;2023-04-25T04:47:48;160519.63;;;7.35
71897;BMP280;59767;51.344;12.362;2023-04-25T04:50:53;160532.69;;;7.40
71897;BMP280;59767;51.344;12.362;2023-04-25T04:53:58;160528.75;;;7.38
71897;BMP280;59767;51.344;12.362;2023-04-25T04:57:05;160547.03;;;7.45
71897;BMP280;59767;51.344;12.362;2023-04-25T05:00:10;160550.97;;;7.47
71897;BMP280;59767;51.344;12.362;2023-04-25T05:03:14;160557.47;;;7.49
71897;BMP280;59767;51.344;12.362;2023-04-25T05:06:19;160571.84;;;7.55
71897;BMP280;59767;51.344;12.362;2023-04-25T05:09:23;160578.44;;;7.57
71897;BMP280;59767;51.344;12.362;2023-04-25T05:12:29;160587.53;;;7.61
71897;BMP280;59767;51.344;12.362;2023-04-25T05:15:34;160594.06;;;7.63
71897;BMP280;59767;51.344;12.362;2023-04-25T05:18:39;160626.72;;;7.76
71897;BMP280;59767;51.344;12.362;2023-04-25T05:21:43;160612.34;;;7.70
71897;BMP280;59767;51.344;12.362;2023-04-25T05:24:48;160630.66;;;7.77
71897;BMP280;59767;51.344;12.362;2023-04-25T05:27:52;160658.13;;;7.88
71897;BMP280;59767;51.344;12.362;2023-04-25T05:30:56;160671.13;;;7.93
71897;BMP280;59767;51.344;12.362;2023-04-25T05:34:00;160669.84;;;7.92
71897;BMP280;59767;51.344;12.362;2023-04-25T05:37:05;160709.03;;;8.07
71897;BMP280;59767;51.344;12.362;2023-04-25T05:40:09;160719.47;;;8.11
71897;BMP280;59767;51.344;12.362;2023-04-25T05:43:14;160741.72;;;8.20
71897;BMP280;59767;51.344;12.362;2023-04-25T05:46:18;160727.34;;;8.14
71897;BMP280;59767;51.344;12.362;2023-04-25T05:49:22;160752.16;;;8.24
71897;BMP280;59767;51.344;12.362;2023-04-25T05:52:26;160769.19;;;8.30
71897;BMP280;59767;51.344;12.362;2023-04-25T05:55:30;160776.97;;;8.33
71897;BMP280;59767;51.344;12.362;2023-04-25T05:58:34;160767.84;;;8.30
71897;BMP280;59767;51.344;12.362;2023-04-25T06:01:39;160796.59;;;8.41
71897;BMP280;59767;51.344;12.362;2023-04-25T06:04:44;160809.66;;;8.46
71897;BMP280;59767;51.344;12.362;2023-04-25T06:07:48;160841.03;;;8.58
71897;BMP280;59767;51.344;12.362;2023-04-25T06:10:52;160872.44;;;8.70
71897;BMP280;59767;51.344;12.362;2023-04-25T06:13:56;160871.09;;;8.69
71897;BMP280;59767;51.344;12.362;2023-04-25T06:17:01;160875.03;;;8.71
71897;BMP280;59767;51.344;12.362;2023-04-25T06:20:10;160894.66;;;8.78
71897;BMP280;59767;51.344;12.362;2023-04-25T06:23:13;160898.59;;;8.80
71897;BMP280;59767;51.344;12.362;2023-04-25T06:26:18;160928.56;;;8.91
71897;BMP280;59767;51.344;12.362;2023-04-25T06:29:23;160986.09;;;9.14
71897;BMP280;59767;51.344;12.362;2023-04-25T06:32:27;161106.41;;;9.60
71897;BMP280;59767;51.344;12.362;2023-04-25T06:35:33;161169.16;;;9.84
71897;BMP280;59767;51.344;12.362;2023-04-25T06:38:37;161239.81;;;10.11
71897;BMP280;59767;51.344;12.362;2023-04-25T06:41:42;161239.81;;;10.11
71897;BMP280;59767;51.344;12.362;2023-04-25T06:44:45;161231.94;;;10.08
71897;BMP280;59767;51.344;12.362;2023-04-25T06:47:49;161255.47;;;10.17
71897;BMP280;59767;51.344;12.362;2023-04-25T06:50:54;161252.88;;;10.16
71897;BMP280;59767;51.344;12.362;2023-04-25T06:53:59;161251.53;;;10.15
71897;BMP280;59767;51.344;12.362;2023-04-25T06:57:03;161284.31;;;10.28
71897;BMP280;59767;51.344;12.362;2023-04-25T07:00:07;161280.38;;;10.26
71897;BMP280;59767;51.344;12.362;2023-04-25T07:03:14;161305.25;;;10.36
71897;BMP280;59767;51.344;12.362;2023-04-25T07:06:19;161303.94;;;10.35
71897;BMP280;59767;51.344;12.362;2023-04-25T07:09:23;161241.13;;;10.11
71897;BMP280;59767;51.344;12.362;2023-04-25T07:12:27;161226.75;;;10.06
71897;BMP280;59767;51.344;12.362;2023-04-25T07:15:31;161230.63;;;10.07
71897;BMP280;59767;51.344;12.362;2023-04-25T07:18:35;161220.19;;;10.03
71897;BMP280;59767;51.344;12.362;2023-04-25T07:21:39;161211.03;;;10.00
71897;BMP280;59767;51.344;12.362;2023-04-25T07:24:43;161175.75;;;9.86
71897;BMP280;59767;51.344;12.362;2023-04-25T07:27:50;161166.56;;;9.83
71897;BMP280;59767;51.344;12.362;2023-04-25T07:30:55;161179.69;;;9.88
71897;BMP280;59767;51.344;12.362;2023-04-25T07:33:59;161173.09;;;9.85
71897;BMP280;59767;51.344;12.362;2023-04-25T07:37:05;161177.03;;;9.87
71897;BMP280;59767;51.344;12.362;2023-04-25T07:40:10;161182.28;;;9.89
71897;BMP280;59767;51.344;12.362;2023-04-25T07:43:13;161153.50;;;9.78
71897;BMP280;59767;51.344;12.362;2023-04-25T07:46:20;161111.66;;;9.62
71897;BMP280;59767;51.344;12.362;2023-04-25T07:49:24;161098.53;;;9.57
71897;BMP280;59767;51.344;12.362;2023-04-25T07:52:28;161110.38;;;9.61
71897;BMP280;59767;51.344;12.362;2023-04-25T07:55:32;161107.72;;;9.60
71897;BMP280;59767;51.344;12.362;2023-04-25T07:58:36;161098.53;;;9.57
71897;BMP280;59767;51.344;12.362;2023-04-25T08:01:41;161097.28;;;9.56
71897;BMP280;59767;51.344;12.362;2023-04-25T08:04:45;161094.63;;;9.55
71897;BMP280;59767;51.344;12.362;2023-04-25T08:07:50;161127.31;;;9.68
71897;BMP280;59767;51.344;12.362;2023-04-25T08:10:54;161140.38;;;9.73
71897;BMP280;59767;51.344;12.362;2023-04-25T08:13:59;161122.13;;;9.66
71897;BMP280;59767;51.344;12.362;2023-04-25T08:17:03;161153.50;;;9.78
71897;BMP280;59767;51.344;12.362;2023-04-25T08:20:07;161194.03;;;9.93
71897;BMP280;59767;51.344;12.362;2023-04-25T08:23:13;161252.88;;;10.16
71897;BMP280;59767;51.344;12.362;2023-04-25T08:26:17;161298.66;;;10.33
71897;BMP280;59767;51.344;12.362;2023-04-25T08:29:21;161388.94;;;10.68
71897;BMP280;59767;51.344;12.362;2023-04-25T08:32:27;161429.53;;;10.83
71897;BMP280;59767;51.344;12.362;2023-04-25T08:35:33;161471.38;;;10.99
71897;BMP280;59767;51.344;12.362;2023-04-25T08:38:38;161454.41;;;10.93
71897;BMP280;59767;51.344;12.362;2023-04-25T08:41:42;161405.94;;;10.74
71897;BMP280;59767;51.344;12.362;2023-04-25T08:44:48;161388.94;;;10.68
71897;BMP280;59767;51.344;12.362;2023-04-25T08:47:54;161426.88;;;10.82
71897;BMP280;59767;51.344;12.362;2023-04-25T08:51:02;161476.63;;;11.01
71897;BMP280;59767;51.344;12.362;2023-04-25T08:54:11;161517.19;;;11.17
71897;BMP280;59767;51.344;12.362;2023-04-25T08:57:19;161564.28;;;11.35
71897;BMP280;59767;51.344;12.362;2023-04-25T09:00:23;161576.03;;;11.39
71897;BMP280;59767;51.344;12.362;2023-04-25T09:03:27;161603.56;;;11.50
71897;BMP280;59767;51.344;12.362;2023-04-25T09:06:31;161621.84;;;11.57
71897;BMP280;59767;51.344;12.362;2023-04-25T09:09:36;161641.47;;;11.64
71897;BMP280;59767;51.344;12.362;2023-04-25T09:12:40;161717.41;;;11.93
71897;BMP280;59767;51.344;12.362;2023-04-25T09:15:53;161785.50;;;12.19
71897;BMP280;59767;51.344;12.362;2023-04-25T09:18:57;161820.81;;;12.33
71897;BMP280;59767;51.344;12.362;2023-04-25T09:22:03;161761.94;;;12.10
71897;BMP280;59767;51.344;12.362;2023-04-25T09:25:10;161721.34;;;11.95
71897;BMP280;59767;51.344;12.362;2023-04-25T09:28:15;161733.13;;;11.99
71897;BMP280;59767;51.344;12.362;2023-04-25T09:31:23;161716.09;;;11.93
71897;BMP280;59767;51.344;12.362;2023-04-25T09:34:28;161674.25;;;11.77
71897;BMP280;59767;51.344;12.362;2023-04-25T09:37:32;161595.66;;;11.47
71897;BMP280;59767;51.344;12.362;2023-04-25T09:40:41;161496.22;;;11.09
71897;BMP280;59767;51.344;12.362;2023-04-25T09:43:49;161493.63;;;11.08
71897;BMP280;59767;51.344;12.362;2023-04-25T09:46:53;161462.22;;;10.96
71897;BMP280;59767;51.344;12.362;2023-04-25T09:49:57;161459.56;;;10.95
71897;BMP280;59767;51.344;12.362;2023-04-25T09:53:05;161480.50;;;11.03
71897;BMP280;59767;51.344;12.362;2023-04-25T09:56:11;161522.38;;;11.19
71897;BMP280;59767;51.344;12.362;2023-04-25T09:59:16;161606.16;;;11.51
71897;BMP280;59767;51.344;12.362;2023-04-25T10:02:25;161682.09;;;11.80
71897;BMP280;59767;51.344;12.362;2023-04-25T10:05:32;161619.25;;;11.56
71897;BMP280;59767;51.344;12.362;2023-04-25T10:08:40;161556.47;;;11.32
71897;BMP280;59767;51.344;12.362;2023-04-25T10:11:46;161513.25;;;11.15
71897;BMP280;59767;51.344;12.362;2023-04-25T10:14:52;161522.38;;;11.19
71897;BMP280;59767;51.344;12.362;2023-04-25T10:17:58;161517.19;;;11.17
71897;BMP280;59767;51.344;12.362;2023-04-25T10:21:04;161488.38;;;11.06
71897;BMP280;59767;51.344;12.362;2023-04-25T10:24:08;161481.84;;;11.03
71897;BMP280;59767;51.344;12.362;2023-04-25T10:27:13;161566.88;;;11.36
71897;BMP280;59767;51.344;12.362;2023-04-25T10:30:18;161650.69;;;11.68
71897;BMP280;59767;51.344;12.362;2023-04-25T10:33:32;161662.44;;;11.72
71897;BMP280;59767;51.344;12.362;2023-04-25T10:36:37;161645.41;;;11.66
71897;BMP280;59767;51.344;12.362;2023-04-25T10:39:42;161606.16;;;11.51
71897;BMP280;59767;51.344;12.362;2023-04-25T10:42:46;161534.19;;;11.23
71897;BMP280;59767;51.344;12.362;2023-04-25T10:45:53;161467.44;;;10.98
71897;BMP280;59767;51.344;12.362;2023-04-25T10:49:02;161402.00;;;10.73
71897;BMP280;59767;51.344;12.362;2023-04-25T10:52:16;161368.00;;;10.60
71897;BMP280;59767;51.344;12.362;2023-04-25T10:55:20;161343.13;;;10.50
71897;BMP280;59767;51.344;12.362;2023-04-25T10:58:24;161357.53;;;10.56
71897;BMP280;59767;51.344;12.362;2023-04-25T11:01:36;161370.66;;;10.61
71897;BMP280;59767;51.344;12.362;2023-04-25T11:04:40;161388.94;;;10.68
71897;BMP280;59767;51.344;12.362;2023-04-25T11:07:49;161374.59;;;10.62
71897;BMP280;59767;51.344;12.362;2023-04-25T11:11:07;161383.72;;;10.66
71897;BMP280;59767;51.344;12.362;2023-04-25T11:14:11;161385.00;;;10.66
71897;BMP280;59767;51.344;12.362;2023-04-25T11:17:15;161392.88;;;10.69
71897;BMP280;59767;51.344;12.362;2023-04-25T11:20:20;161370.66;;;10.61
71897;BMP280;59767;51.344;12.362;2023-04-25T11:23:25;161343.13;;;10.50
71897;BMP280;59767;51.344;12.362;2023-04-25T11:26:30;161297.34;;;10.33
71897;BMP280;59767;51.344;12.362;2023-04-25T11:29:35;161296.06;;;10.32
71897;BMP280;59767;51.344;12.362;2023-04-25T11:32:40;161336.59;;;10.48
71897;BMP280;59767;51.344;12.362;2023-04-25T11:35:44;161349.72;;;10.53
71897;BMP280;59767;51.344;12.362;2023-04-25T11:38:50;161383.72;;;10.66
71897;BMP280;59767;51.344;12.362;2023-04-25T11:41:55;161409.88;;;10.76
71897;BMP280;59767;51.344;12.362;2023-04-25T11:44:59;161436.06;;;10.86
71897;BMP280;59767;51.344;12.362;2023-04-25T11:48:04;161455.69;;;10.93
71897;BMP280;59767;51.344;12.362;2023-04-25T11:51:08;161480.50;;;11.03
71897;BMP280;59767;51.344;12.362;2023-04-25T11:54:12;161526.31;;;11.20
71897;BMP280;59767;51.344;12.362;2023-04-25T11:57:19;161527.66;;;11.21
71897;BMP280;59767;51.344;12.362;2023-04-25T12:00:24;161511.97;;;11.15
71897;BMP280;59767;51.344;12.362;2023-04-25T12:03:29;161472.69;;;11.00
71897;BMP280;59767;51.344;12.362;2023-04-25T12:06:39;161477.91;;;11.02
71897;BMP280;59767;51.344;12.362;2023-04-25T12:09:51;161467.44;;;10.98
71897;BMP280;59767;51.344;12.362;2023-04-25T12:12:55;161504.09;;;11.12
71897;BMP280;59767;51.344;12.362;2023-04-25T12:16:00;161562.94;;;11.34
71897;BMP280;59767;51.344;12.362;2023-04-25T12:19:04;161686.03;;;11.81
71897;BMP280;59767;51.344;12.362;2023-04-25T12:22:22;161761.94;;;12.10
71897;BMP280;59767;51.344;12.362;2023-04-25T12:25:44;161786.78;;;12.20
71897;BMP280;59767;51.344;12.362;2023-04-25T12:28:49;161737.06;;;12.01
71897;BMP280;59767;51.344;12.362;2023-04-25T12:31:55;161655.88;;;11.70
71897;BMP280;59767;51.344;12.362;2023-04-25T12:34:59;161574.81;;;11.39
71897;BMP280;59767;51.344;12.362;2023-04-25T12:38:04;161517.19;;;11.17
71897;BMP280;59767;51.344;12.362;2023-04-25T12:41:08;161467.44;;;10.98
71897;BMP280;59767;51.344;12.362;2023-04-25T12:44:13;161498.84;;;11.10
71897;BMP280;59767;51.344;12.362;2023-04-25T12:47:17;161484.44;;;11.04
71897;BMP280;59767;51.344;12.362;2023-04-25T12:50:22;161496.22;;;11.09
71897;BMP280;59767;51.344;12.362;2023-04-25T12:53:26;161509.31;;;11.14
71897;BMP280;59767;51.344;12.362;2023-04-25T12:56:30;161474.00;;;11.00
71897;BMP280;59767;51.344;12.362;2023-04-25T12:59:35;161457.00;;;10.94
71897;BMP280;59767;51.344;12.362;2023-04-25T13:02:39;161450.41;;;10.91
71897;BMP280;59767;51.344;12.362;2023-04-25T13:05:43;161438.63;;;10.87
71897;BMP280;59767;51.344;12.362;2023-04-25T13:08:47;161426.88;;;10.82
71897;BMP280;59767;51.344;12.362;2023-04-25T13:11:52;161394.19;;;10.70
71897;BMP280;59767;51.344;12.362;2023-04-25T13:15:01;161403.34;;;10.73
71897;BMP280;59767;51.344;12.362;2023-04-25T13:18:05;161388.94;;;10.68
71897;BMP280;59767;51.344;12.362;2023-04-25T13:21:11;161381.06;;;10.65
71897;BMP280;59767;51.344;12.362;2023-04-25T13:24:16;161405.94;;;10.74
71897;BMP280;59767;51.344;12.362;2023-04-25T13:27:20;161428.22;;;10.83
71897;BMP280;59767;51.344;12.362;2023-04-25T13:30:25;161548.59;;;11.29
71897;BMP280;59767;51.344;12.362;2023-04-25T13:33:29;161633.63;;;11.61
71897;BMP280;59767;51.344;12.362;2023-04-25T13:36:33;161748.84;;;12.05
71897;BMP280;59767;51.344;12.362;2023-04-25T13:39:38;161899.41;;;12.63
71897;BMP280;59767;51.344;12.362;2023-04-25T13:42:42;161946.56;;;12.81
71897;BMP280;59767;51.344;12.362;2023-04-25T13:45:49;161922.97;;;12.72
71897;BMP280;59767;51.344;12.362;2023-04-25T13:48:53;161907.25;;;12.66
71897;BMP280;59767;51.344;12.362;2023-04-25T13:52:06;161845.72;;;12.42
71897;BMP280;59767;51.344;12.362;2023-04-25T13:55:10;161837.84;;;12.39
71897;BMP280;59767;51.344;12.362;2023-04-25T13:58:14;161839.19;;;12.40
71897;BMP280;59767;51.344;12.362;2023-04-25T14:01:18;161870.56;;;12.52
71897;BMP280;59767;51.344;12.362;2023-04-25T14:04:24;161847.06;;;12.43
71897;BMP280;59767;51.344;12.362;2023-04-25T14:07:29;161860.13;;;12.48
71897;BMP280;59767;51.344;12.362;2023-04-25T14:10:34;161805.13;;;12.27
71897;BMP280;59767;51.344;12.362;2023-04-25T14:13:38;161739.69;;;12.02
71897;BMP280;59767;51.344;12.362;2023-04-25T14:16:42;161705.66;;;11.89
71897;BMP280;59767;51.344;12.362;2023-04-25T14:19:46;161754.06;;;12.07
71897;BMP280;59767;51.344;12.362;2023-04-25T14:22:52;161742.31;;;12.03
71897;BMP280;59767;51.344;12.362;2023-04-25T14:25:58;161705.66;;;11.89
71897;BMP280;59767;51.344;12.362;2023-04-25T14:29:04;161661.16;;;11.72
71897;BMP280;59767;51.344;12.362;2023-04-25T14:32:09;161650.69;;;11.68
71897;BMP280;59767;51.344;12.362;2023-04-25T14:35:13;161642.81;;;11.65
71897;BMP280;59767;51.344;12.362;2023-04-25T14:38:17;161616.59;;;11.55
71897;BMP280;59767;51.344;12.362;2023-04-25T14:41:27;161640.19;;;11.64
71897;BMP280;59767;51.344;12.362;2023-04-25T14:44:31;161687.31;;;11.82
71897;BMP280;59767;51.344;12.362;2023-04-25T14:47:36;161680.78;;;11.79
71897;BMP280;59767;51.344;12.362;2023-04-25T14:50:41;161684.72;;;11.81
71897;BMP280;59767;51.344;12.362;2023-04-25T14:53:48;161691.19;;;11.83
71897;BMP280;59767;51.344;12.362;2023-04-25T14:56:55;161718.75;;;11.94
71897;BMP280;59767;51.344;12.362;2023-04-25T14:59:59;161679.44;;;11.79
71897;BMP280;59767;51.344;12.362;2023-04-25T15:06:53;161697.78;;;11.86
71897;BMP280;59767;51.344;12.362;2023-04-25T15:09:57;161638.88;;;11.63
71897;BMP280;59767;51.344;12.362;2023-04-25T15:13:01;161585.22;;;11.43
71897;BMP280;59767;51.344;12.362;2023-04-25T15:16:05;161612.72;;;11.53
71897;BMP280;59767;51.344;12.362;2023-04-25T15:19:22;161633.63;;;11.61
71897;BMP280;59767;51.344;12.362;2023-04-25T15:22:37;161619.25;;;11.56
71897;BMP280;59767;51.344;12.362;2023-04-25T15:25:41;161646.75;;;11.66
71897;BMP280;59767;51.344;12.362;2023-04-25T15:28:45;161655.88;;;11.70
71897;BMP280;59767;51.344;12.362;2023-04-25T15:31:50;161604.84;;;11.50
71897;BMP280;59767;51.344;12.362;2023-04-25T15:34:54;161620.53;;;11.56
71897;BMP280;59767;51.344;12.362;2023-04-25T15:37:58;161628.44;;;11.59
71897;BMP280;59767;51.344;12.362;2023-04-25T15:41:02;161620.53;;;11.56
71897;BMP280;59767;51.344;12.362;2023-04-25T15:44:08;161602.25;;;11.49
71897;BMP280;59767;51.344;12.362;2023-04-25T15:47:13;161615.31;;;11.54
71897;BMP280;59767;51.344;12.362;2023-04-25T15:50:18;161619.25;;;11.56
71897;BMP280;59767;51.344;12.362;2023-04-25T15:53:22;161606.16;;;11.51
71897;BMP280;59767;51.344;12.362;2023-04-25T15:56:27;161587.84;;;11.44
71897;BMP280;59767;51.344;12.362;2023-04-25T15:59:31;161582.63;;;11.42
71897;BMP280;59767;51.344;12.362;2023-04-25T16:02:36;161579.97;;;11.41
71897;BMP280;59767;51.344;12.362;2023-04-25T16:05:41;161545.94;;;11.28
71897;BMP280;59767;51.344;12.362;2023-04-25T16:08:46;161508.03;;;11.13
71897;BMP280;59767;51.344;12.362;2023-04-25T16:11:50;161477.91;;;11.02
71897;BMP280;59767;51.344;12.362;2023-04-25T16:14:54;161454.41;;;10.93
71897;BMP280;59767;51.344;12.362;2023-04-25T16:17:59;161458.28;;;10.94
71897;BMP280;59767;51.344;12.362;2023-04-25T16:21:03;161459.56;;;10.95
71897;BMP280;59767;51.344;12.362;2023-04-25T16:24:08;161472.69;;;11.00
71897;BMP280;59767;51.344;12.362;2023-04-25T16:27:13;161442.56;;;10.88
71897;BMP280;59767;51.344;12.362;2023-04-25T16:30:18;161428.22;;;10.83
71897;BMP280;59767;51.344;12.362;2023-04-25T16:33:22;161422.94;;;10.81
71897;BMP280;59767;51.344;12.362;2023-04-25T16:36:26;161381.06;;;10.65
71897;BMP280;59767;51.344;12.362;2023-04-25T16:39:36;161351.00;;;10.53
71897;BMP280;59767;51.344;12.362;2023-04-25T16:42:40;161327.47;;;10.44
71897;BMP280;59767;51.344;12.362;2023-04-25T16:45:44;161331.38;;;10.46
71897;BMP280;59767;51.344;12.362;2023-04-25T16:48:49;161331.38;;;10.46
71897;BMP280;59767;51.344;12.362;2023-04-25T16:51:53;161314.34;;;10.39
71897;BMP280;59767;51.344;12.362;2023-04-25T16:54:57;161326.13;;;10.44
71897;BMP280;59767;51.344;12.362;2023-04-25T16:58:02;161318.25;;;10.41
71897;BMP280;59767;51.344;12.362;2023-04-25T17:01:06;161328.78;;;10.45
71897;BMP280;59767;51.344;12.362;2023-04-25T17:04:10;161327.47;;;10.44
71897;BMP280;59767;51.344;12.362;2023-04-25T17:07:15;161320.91;;;10.42
71897;BMP280;59767;51.344;12.362;2023-04-25T17:10:20;161319.59;;;10.41
71897;BMP280;59767;51.344;12.362;2023-04-25T17:13:26;161286.91;;;10.29
71897;BMP280;59767;51.344;12.362;2023-04-25T17:16:36;161290.84;;;10.30
71897;BMP280;59767;51.344;12.362;2023-04-25T17:19:40;161284.31;;;10.28
71897;BMP280;59767;51.344;12.362;2023-04-25T17:22:44;161271.19;;;10.23
71897;BMP280;59767;51.344;12.362;2023-04-25T17:25:49;161260.75;;;10.19